createdAt,value
2018-09-12T00:04:11.098Z,6.70
2018-09-12T00:09:15.798Z,5.07
2018-09-12T00:14:19.914Z,4.03
2018-09-12T00:19:23.719Z,5.03
2018-09-12T00:24:27.757Z,4.13
2018-09-12T00:29:31.557Z,5.50
2018-09-12T00:34:35.613Z,3.93
2018-09-12T00:39:39.640Z,6.93
2018-09-12T00:44:43.742Z,4.23
2018-09-12T00:49:47.779Z,9.97
2018-09-12T00:54:51.824Z,6.20
2018-09-12T00:59:55.914Z,4.47
2018-09-12T01:04:59.975Z,4.27
2018-09-12T01:10:04.066Z,7.63
2018-09-12T01:15:07.857Z,4.10
2018-09-12T01:20:11.904Z,6.23
2018-09-12T01:25:15.737Z,4.70
2018-09-12T01:30:24.431Z,5.67
2018-09-12T01:35:28.469Z,5.73
2018-09-12T01:40:32.510Z,4.33
2018-09-12T01:45:36.678Z,4.43
2018-09-12T01:50:40.721Z,5.07
2018-09-12T01:55:46.049Z,5.10
2018-09-12T02:00:50.025Z,6.33
2018-09-12T02:05:54.056Z,3.90
2018-09-12T02:10:58.145Z,6.87
2018-09-12T02:16:02.168Z,4.20
2018-09-12T02:21:06.288Z,4.57
2018-09-12T02:26:10.333Z,4.00
2018-09-12T02:31:14.439Z,5.30
2018-09-12T02:36:23.773Z,4.83
2018-09-12T02:41:28.049Z,4.40
2018-09-12T02:46:31.853Z,4.93
2018-09-12T02:51:35.979Z,4.10
2018-09-12T02:56:40.008Z,3.50
2018-09-12T03:01:44.344Z,4.97
2018-09-12T03:06:48.145Z,4.53
2018-09-12T03:11:52.053Z,7.13
2018-09-12T03:17:01.951Z,5.83
2018-09-12T03:22:06.138Z,4.30
2018-09-12T03:27:10.156Z,5.97
2018-09-12T03:32:14.254Z,7.70
2018-09-12T03:37:18.310Z,8.03
2018-09-12T03:42:22.363Z,3.90
2018-09-12T03:47:26.173Z,4.33
2018-09-12T03:52:30.267Z,6.03
2018-09-12T03:57:34.330Z,5.37
2018-09-12T04:02:38.217Z,4.93
2018-09-12T04:07:42.201Z,6.50
2018-09-12T04:12:46.303Z,7.33
2018-09-12T04:17:50.394Z,6.67
2018-09-12T04:22:54.458Z,6.87
2018-09-12T04:27:58.602Z,5.00
2018-09-12T04:33:02.655Z,4.40
2018-09-12T04:38:06.561Z,4.60
2018-09-12T04:43:10.436Z,6.40
2018-09-12T04:48:14.346Z,4.43
2018-09-12T04:53:18.858Z,5.13
2018-09-12T04:58:22.967Z,4.53
2018-09-12T05:03:27.100Z,8.80
2018-09-12T05:08:31.250Z,5.30
2018-09-12T05:13:35.328Z,6.70
2018-09-12T05:18:39.418Z,5.43
2018-09-12T05:23:43.251Z,5.23
2018-09-12T05:28:47.308Z,7.20
2018-09-12T05:33:51.497Z,6.97
2018-09-12T05:38:55.557Z,8.27
2018-09-12T05:43:59.702Z,5.83
2018-09-12T05:49:03.916Z,4.93
2018-09-12T05:54:08.030Z,5.10
2018-09-12T05:59:11.909Z,5.27
2018-09-12T06:04:15.718Z,5.53
2018-09-12T06:09:19.520Z,4.43
2018-09-12T06:14:23.547Z,8.97
2018-09-12T06:19:27.613Z,6.50
2018-09-12T06:24:31.641Z,5.17
2018-09-12T06:29:35.707Z,6.03
2018-09-12T06:34:39.735Z,8.07
2018-09-12T06:39:43.765Z,10.30
2018-09-12T06:44:47.631Z,12.03
2018-09-12T06:49:51.408Z,11.07
2018-09-12T06:54:55.417Z,11.60
2018-09-12T06:59:59.518Z,11.30
2018-09-12T07:05:03.570Z,9.50
2018-09-12T07:10:07.636Z,10.03
2018-09-12T07:15:11.443Z,9.97
2018-09-12T07:20:15.259Z,7.90
2018-09-12T07:25:19.377Z,7.43
2018-09-12T07:30:23.481Z,7.17
2018-09-12T07:35:27.534Z,8.73
2018-09-12T07:40:32.497Z,6.27
2018-09-12T07:45:36.671Z,5.93
2018-09-12T07:50:49.179Z,5.60
2018-09-12T07:55:53.082Z,7.03
2018-09-12T08:00:56.817Z,8.60
2018-09-12T08:06:00.720Z,3.97
2018-09-12T08:11:04.853Z,7.90
2018-09-12T08:16:09.247Z,4.05
2018-09-12T08:21:13.390Z,4.93
2018-09-12T08:26:17.499Z,6.17
2018-09-12T08:31:21.553Z,4.50
2018-09-12T08:36:25.446Z,3.62
2018-09-12T08:41:29.577Z,4.10
2018-09-12T08:46:33.643Z,3.42
2018-09-12T08:51:37.464Z,3.53
2018-09-12T08:56:41.594Z,3.23
2018-09-12T09:01:45.451Z,4.23
2018-09-12T09:06:49.501Z,4.13
2018-09-12T09:11:53.658Z,3.40
2018-09-12T09:16:57.485Z,4.17
2018-09-12T09:22:01.629Z,3.97
2018-09-12T09:27:05.497Z,6.60
2018-09-12T09:32:09.529Z,3.10
2018-09-12T09:37:13.625Z,3.90
2018-09-12T09:42:17.702Z,3.97
2018-09-12T09:47:21.777Z,5.40
2018-09-12T09:52:27.219Z,4.63
2018-09-12T09:57:31.286Z,5.83
2018-09-12T10:02:41.049Z,6.27
2018-09-12T10:07:51.731Z,7.83
2018-09-12T10:12:55.774Z,4.97
2018-09-12T10:17:59.621Z,3.93
2018-09-12T10:23:03.694Z,7.30
2018-09-12T10:28:07.502Z,9.00
2018-09-12T10:33:11.546Z,5.33
2018-09-12T10:38:15.848Z,6.03
2018-09-12T10:43:19.918Z,3.90
2018-09-12T10:48:23.965Z,5.43
2018-09-12T10:53:28.029Z,3.60
2018-09-12T10:58:32.041Z,4.03
2018-09-12T11:03:36.110Z,3.87
2018-09-12T11:08:39.942Z,5.77
2018-09-12T11:13:43.993Z,5.03
2018-09-12T11:18:48.074Z,3.53
2018-09-12T11:23:51.970Z,6.20
2018-09-12T11:28:55.786Z,4.63
2018-09-12T11:33:59.711Z,5.10
2018-09-12T11:39:03.650Z,4.47
2018-09-12T11:44:07.730Z,3.73
2018-09-12T11:49:11.843Z,4.60
2018-09-12T11:54:15.673Z,6.47
2018-09-12T11:59:19.772Z,5.60
2018-09-12T12:04:23.827Z,5.93
2018-09-12T12:09:27.999Z,4.83
2018-09-12T12:14:31.801Z,3.20
2018-09-12T12:19:35.729Z,4.70
2018-09-12T12:24:39.581Z,3.90
2018-09-12T12:29:43.689Z,4.40
2018-09-12T12:34:47.758Z,3.70
2018-09-12T12:39:51.981Z,7.43
2018-09-12T12:44:55.837Z,6.27
2018-09-12T12:49:59.971Z,5.30
2018-09-12T12:55:04.046Z,4.10
2018-09-12T13:00:07.978Z,4.87
2018-09-12T13:05:12.048Z,5.70
2018-09-12T13:10:16.111Z,5.90
2018-09-12T13:15:19.938Z,5.00
2018-09-12T13:20:23.726Z,3.80
2018-09-12T13:25:27.766Z,5.13
2018-09-12T13:30:31.592Z,4.73
2018-09-12T13:35:35.686Z,4.03
2018-09-12T13:40:39.480Z,3.17
2018-09-12T13:45:43.538Z,4.67
2018-09-12T13:50:47.570Z,4.00
2018-09-12T13:55:51.681Z,3.97
2018-09-12T14:00:55.723Z,3.57
2018-09-12T14:06:00.282Z,3.23
2018-09-12T14:11:04.317Z,4.40
2018-09-12T14:16:08.122Z,7.03
2018-09-12T14:21:12.461Z,5.90
2018-09-12T14:26:16.625Z,6.47
2018-09-12T14:31:20.797Z,4.60
2018-09-12T14:36:24.834Z,6.30
2018-09-12T14:41:28.962Z,8.77
2018-09-12T14:46:32.793Z,4.97
2018-09-12T14:51:36.877Z,5.00
2018-09-12T14:56:41.887Z,7.37
2018-09-12T15:01:46.034Z,5.20
2018-09-12T15:06:49.834Z,5.73
2018-09-12T15:11:53.862Z,5.43
2018-09-12T15:16:57.660Z,6.27
2018-09-12T15:22:01.798Z,8.40
2018-09-12T15:27:05.743Z,6.53
2018-09-12T15:32:09.501Z,7.63
2018-09-12T15:37:13.405Z,7.37
2018-09-12T15:42:17.204Z,7.00
2018-09-12T15:47:22.317Z,8.30
2018-09-12T15:52:26.069Z,10.87
2018-09-12T15:57:30.171Z,8.13
2018-09-12T16:02:34.028Z,11.03
2018-09-12T16:07:37.829Z,13.33
2018-09-12T16:12:41.650Z,8.60
2018-09-12T16:17:52.369Z,8.70
2018-09-12T16:22:56.200Z,8.80
2018-09-12T16:28:00.277Z,11.60
2018-09-12T16:33:04.865Z,9.97
2018-09-12T16:38:08.901Z,9.07
2018-09-12T16:43:12.942Z,12.57
2018-09-12T16:48:16.728Z,13.17
2018-09-12T16:53:20.632Z,12.13
2018-09-12T16:58:24.705Z,12.87
2018-09-12T17:03:28.809Z,12.87
2018-09-12T17:08:32.849Z,12.13
2018-09-12T17:13:36.929Z,11.73
2018-09-12T17:18:41.007Z,12.73
2018-09-12T17:23:45.134Z,14.77
2018-09-12T17:28:49.136Z,16.63
2018-09-12T17:33:53.041Z,17.07
2018-09-12T17:38:57.082Z,18.07
2018-09-12T17:44:00.999Z,19.17
2018-09-12T17:49:04.882Z,20.80
2018-09-12T17:54:08.694Z,18.87
2018-09-12T17:59:12.507Z,20.10
2018-09-12T18:04:16.316Z,20.83
2018-09-12T18:09:20.253Z,22.43
2018-09-12T18:14:24.049Z,22.97
2018-09-12T18:19:28.325Z,25.30
2018-09-12T18:24:32.902Z,25.93
2018-09-12T18:29:37.179Z,26.87
2018-09-12T18:34:41.001Z,28.43
2018-09-12T18:39:45.126Z,27.33
2018-09-12T18:44:48.954Z,28.37
2018-09-12T18:49:53.005Z,25.90
2018-09-12T18:54:57.065Z,26.33
2018-09-12T19:00:02.207Z,28.73
2018-09-12T19:05:06.707Z,25.70
2018-09-12T19:10:11.708Z,21.33
2018-09-12T19:15:15.826Z,22.17
2018-09-12T19:20:19.934Z,18.37
2018-09-12T19:25:24.043Z,18.87
2018-09-12T19:30:28.145Z,20.33
2018-09-12T19:35:32.221Z,18.43
2018-09-12T19:40:36.325Z,15.13
2018-09-12T19:45:40.405Z,14.17
2018-09-12T19:50:44.467Z,12.20
2018-09-12T19:55:48.545Z,11.73
2018-09-12T20:00:52.617Z,11.73
2018-09-12T20:05:56.709Z,9.90
2018-09-12T20:11:01.041Z,9.70
2018-09-12T20:16:05.329Z,12.67
2018-09-12T20:21:09.326Z,11.40
2018-09-12T20:26:13.420Z,11.77
2018-09-12T20:31:17.239Z,11.50
2018-09-12T20:36:21.358Z,11.03
2018-09-12T20:41:25.391Z,11.10
2018-09-12T20:46:29.445Z,15.67
2018-09-12T20:51:33.502Z,18.63
2018-09-12T20:56:37.566Z,18.73
2018-09-12T21:01:41.611Z,19.00
2018-09-12T21:06:45.658Z,21.10
2018-09-12T21:11:50.013Z,22.03
2018-09-12T21:16:53.833Z,22.47
2018-09-12T21:21:57.993Z,25.87
2018-09-12T21:27:02.194Z,21.87
2018-09-12T21:32:06.084Z,23.83
2018-09-12T21:37:10.142Z,21.00
2018-09-12T21:42:14.219Z,21.70
2018-09-12T21:47:18.318Z,22.30
2018-09-12T21:52:22.393Z,19.97
2018-09-12T21:57:26.479Z,23.23
2018-09-12T22:02:30.345Z,19.43
2018-09-12T22:07:34.495Z,17.27
2018-09-12T22:12:38.545Z,19.00
2018-09-12T22:17:42.574Z,19.13
2018-09-12T22:22:46.436Z,18.73
2018-09-12T22:27:50.573Z,18.10
2018-09-12T22:32:54.687Z,18.77
2018-09-12T22:37:58.993Z,17.50
2018-09-12T22:43:03.063Z,19.57
2018-09-12T22:48:07.145Z,17.73
2018-09-12T22:53:11.215Z,18.87
2018-09-12T22:58:15.378Z,19.40
2018-09-12T23:03:20.298Z,18.93
2018-09-12T23:08:24.377Z,19.17
2018-09-12T23:13:28.971Z,19.00
2018-09-12T23:18:33.042Z,18.80
2018-09-12T23:23:37.144Z,17.87
2018-09-12T23:28:41.178Z,17.80
2018-09-12T23:33:51.901Z,17.63
2018-09-12T23:38:55.941Z,18.23
2018-09-12T23:44:00.048Z,16.93
2018-09-12T23:49:04.209Z,16.57
2018-09-12T23:54:08.310Z,17.63
2018-09-12T23:59:12.149Z,17.53
